createdAt,value
2024-01-05T00:01:01.128Z,32.70
2024-01-05T00:03:28.383Z,32.70
2024-01-05T00:05:55.435Z,32.70
2024-01-05T00:08:22.396Z,32.70
2024-01-05T00:10:49.325Z,32.70
2024-01-05T00:13:16.314Z,32.60
2024-01-05T00:15:43.757Z,32.60
2024-01-05T00:18:10.929Z,32.60
2024-01-05T00:20:37.896Z,32.60
2024-01-05T00:23:04.858Z,32.60
2024-01-05T00:25:31.797Z,32.50
2024-01-05T00:27:58.690Z,32.50
2024-01-05T00:30:25.647Z,32.60
2024-01-05T00:32:52.693Z,32.70
2024-01-05T00:35:19.713Z,32.80
2024-01-05T00:37:46.636Z,32.90
2024-01-05T00:40:13.537Z,32.90
2024-01-05T00:42:40.512Z,33.00
2024-01-05T00:45:08.006Z,33.10
2024-01-05T00:47:35.096Z,33.10
2024-01-05T00:50:02.279Z,33.20
2024-01-05T00:52:29.777Z,33.20
2024-01-05T00:54:56.711Z,33.30
2024-01-05T00:57:23.672Z,33.30
2024-01-05T00:59:50.690Z,33.40
2024-01-05T01:02:17.654Z,33.40
2024-01-05T01:04:44.613Z,33.50
2024-01-05T01:07:11.585Z,33.50
2024-01-05T01:09:38.536Z,33.50
2024-01-05T01:12:05.676Z,33.50
2024-01-05T01:14:32.615Z,33.50
2024-01-05T01:16:59.491Z,33.60
2024-01-05T01:19:26.562Z,33.60
2024-01-05T01:21:54.044Z,33.60
2024-01-05T01:24:21.074Z,33.60
2024-01-05T01:26:48.050Z,33.80
2024-01-05T01:29:14.930Z,33.90
2024-01-05T01:31:41.847Z,34.10
2024-01-05T01:34:08.822Z,34.20
2024-01-05T01:36:35.863Z,34.20
2024-01-05T01:39:06.004Z,34.10
2024-01-05T01:41:33.327Z,34.00
2024-01-05T01:44:00.302Z,33.90
2024-01-05T01:46:27.423Z,33.90
2024-01-05T01:48:54.762Z,33.90
2024-01-05T01:51:22.254Z,33.70
2024-01-05T01:53:49.290Z,33.80
2024-01-05T01:56:16.563Z,33.70
2024-01-05T01:58:43.760Z,33.80
2024-01-05T02:01:11.201Z,33.80
2024-01-05T02:03:38.293Z,33.70
2024-01-05T02:06:05.842Z,33.60
2024-01-05T02:08:32.909Z,33.50
2024-01-05T02:10:59.869Z,33.50
2024-01-05T02:13:26.835Z,33.40
2024-01-05T02:15:53.748Z,33.50
2024-01-05T02:18:20.746Z,33.40
2024-01-05T02:20:48.551Z,33.40
2024-01-05T02:23:24.364Z,33.40
2024-01-05T02:25:51.553Z,33.50
2024-01-05T02:28:19.955Z,33.50
2024-01-05T02:30:47.139Z,33.50
2024-01-05T02:33:14.301Z,33.50
2024-01-05T02:35:41.372Z,33.40
2024-01-05T02:38:08.336Z,33.40
2024-01-05T02:40:35.308Z,33.40
2024-01-05T02:43:02.294Z,33.40
2024-01-05T02:45:29.463Z,33.40
2024-01-05T02:47:56.940Z,33.40
2024-01-05T02:50:23.958Z,33.50
2024-01-05T02:52:50.932Z,34.20
2024-01-05T02:55:17.893Z,33.50
2024-01-05T02:57:44.874Z,33.50
2024-01-05T03:00:12.097Z,33.40
2024-01-05T03:02:39.074Z,33.30
2024-01-05T03:05:06.847Z,33.10
2024-01-05T03:07:33.805Z,33.10
2024-01-05T03:10:00.812Z,33.00
2024-01-05T03:12:29.662Z,32.80
2024-01-05T03:14:56.791Z,32.60
2024-01-05T03:17:23.757Z,32.60
2024-01-05T03:19:50.825Z,32.50
2024-01-05T03:22:17.873Z,32.50
2024-01-05T03:24:45.132Z,32.40
2024-01-05T03:27:16.017Z,32.40
2024-01-05T03:29:43.259Z,32.30
2024-01-05T03:32:10.381Z,32.20
2024-01-05T03:34:38.316Z,32.20
2024-01-05T03:37:05.404Z,32.20
2024-01-05T03:39:32.644Z,32.30
2024-01-05T03:41:59.790Z,32.20
2024-01-05T03:44:27.249Z,32.20
2024-01-05T03:46:54.278Z,32.20
2024-01-05T03:49:21.279Z,32.10
2024-01-05T03:51:48.392Z,31.80
2024-01-05T03:54:15.322Z,31.70
2024-01-05T03:56:43.659Z,31.60
2024-01-05T03:59:10.791Z,31.50
2024-01-05T04:01:44.861Z,31.40
2024-01-05T04:04:12.109Z,31.40
2024-01-05T04:06:39.197Z,31.50
2024-01-05T04:09:06.294Z,31.50
2024-01-05T04:11:34.843Z,31.50
2024-01-05T04:14:01.793Z,31.50
2024-01-05T04:16:28.851Z,31.50
2024-01-05T04:18:55.926Z,31.50
2024-01-05T04:21:22.973Z,31.40
2024-01-05T04:23:49.977Z,31.40
2024-01-05T04:26:16.908Z,31.40
2024-01-05T04:28:43.852Z,31.40
2024-01-05T04:31:10.825Z,31.30
2024-01-05T04:33:38.126Z,31.30
2024-01-05T04:36:05.413Z,31.20
2024-01-05T04:38:35.682Z,31.20
2024-01-05T04:41:03.363Z,31.10
2024-01-05T04:43:30.319Z,31.10
2024-01-05T04:45:57.265Z,31.00
2024-01-05T04:48:24.342Z,31.00
2024-01-05T04:50:52.107Z,31.00
2024-01-05T04:53:19.105Z,30.90
2024-01-05T04:55:46.044Z,31.00
2024-01-05T04:58:12.967Z,30.90
2024-01-05T05:00:39.995Z,31.00
2024-01-05T05:03:07.143Z,31.00
2024-01-05T05:05:34.135Z,31.00
2024-01-05T05:08:01.122Z,31.00
2024-01-05T05:10:28.346Z,31.10
2024-01-05T05:12:55.292Z,31.10
2024-01-05T05:15:22.289Z,31.00
2024-01-05T05:17:50.796Z,30.90
2024-01-05T05:20:18.990Z,30.90
2024-01-05T05:22:45.944Z,30.80
2024-01-05T05:25:12.906Z,30.70
2024-01-05T05:27:39.927Z,30.60
2024-01-05T05:30:07.838Z,30.50
2024-01-05T05:32:35.158Z,30.50
2024-01-05T05:35:02.107Z,30.50
2024-01-05T05:37:30.602Z,30.50
2024-01-05T05:39:57.572Z,30.40
2024-01-05T05:42:24.546Z,30.50
2024-01-05T05:44:51.510Z,30.50
2024-01-05T05:47:18.457Z,30.60
2024-01-05T05:49:45.534Z,30.60
2024-01-05T05:52:12.523Z,30.70
2024-01-05T05:54:39.516Z,30.70
2024-01-05T05:57:09.197Z,30.70
2024-01-05T05:59:36.284Z,30.70
2024-01-05T06:02:04.163Z,30.60
2024-01-05T06:04:31.294Z,30.60
2024-01-05T06:06:58.464Z,30.60
2024-01-05T06:09:26.439Z,31.30
2024-01-05T06:11:53.468Z,30.50
2024-01-05T06:14:20.507Z,30.60
2024-01-05T06:16:47.446Z,30.60
2024-01-05T06:19:14.490Z,30.50
2024-01-05T06:21:41.750Z,31.20
2024-01-05T06:24:08.943Z,30.50
2024-01-05T06:26:35.916Z,30.50
2024-01-05T06:29:03.223Z,30.70
2024-01-05T06:31:30.480Z,30.60
2024-01-05T06:34:01.513Z,30.60
2024-01-05T06:36:30.285Z,30.70
2024-01-05T06:38:57.380Z,30.70
2024-01-05T06:41:24.381Z,30.80
2024-01-05T06:43:51.336Z,30.80
2024-01-05T06:46:18.621Z,30.80
2024-01-05T06:48:45.654Z,30.80
2024-01-05T06:51:12.795Z,30.70
2024-01-05T06:53:39.753Z,30.70
2024-01-05T06:56:06.797Z,30.60
2024-01-05T06:58:35.239Z,30.60
2024-01-05T07:01:02.543Z,30.60
2024-01-05T07:03:29.855Z,30.70
2024-01-05T07:05:56.989Z,30.80
2024-01-05T07:08:23.990Z,30.80
2024-01-05T07:10:50.988Z,30.90
2024-01-05T07:13:17.916Z,30.80
2024-01-05T07:15:45.316Z,30.90
2024-01-05T07:18:12.842Z,31.00
2024-01-05T07:20:39.860Z,31.20
2024-01-05T07:23:06.814Z,31.20
2024-01-05T07:25:34.554Z,31.40
2024-01-05T07:28:02.788Z,31.40
2024-01-05T07:30:29.991Z,31.40
2024-01-05T07:32:57.189Z,31.30
2024-01-05T07:35:25.046Z,31.30
2024-01-05T07:37:52.023Z,31.30
2024-01-05T07:40:19.038Z,31.20
2024-01-05T07:42:45.985Z,31.10
2024-01-05T07:45:12.944Z,31.10
2024-01-05T07:47:40.124Z,31.10
2024-01-05T07:50:07.134Z,31.20
2024-01-05T07:52:34.088Z,31.30
2024-01-05T07:55:01.036Z,31.30
2024-01-05T07:57:28.096Z,31.40
2024-01-05T07:59:55.077Z,31.50
2024-01-05T08:02:22.164Z,31.50
2024-01-05T08:04:49.108Z,31.70
2024-01-05T08:07:16.109Z,31.80
2024-01-05T08:09:44.301Z,31.90
2024-01-05T08:12:11.294Z,31.90
2024-01-05T08:14:38.899Z,32.10
2024-01-05T08:17:05.836Z,32.00
2024-01-05T08:19:32.891Z,32.00
2024-01-05T08:21:59.969Z,32.00
2024-01-05T08:24:27.898Z,32.00
2024-01-05T08:27:01.205Z,32.00
2024-01-05T08:29:28.157Z,31.90
2024-01-05T08:31:56.855Z,31.90
2024-01-05T08:34:24.091Z,31.70
2024-01-05T08:36:51.253Z,31.60
2024-01-05T08:39:18.257Z,31.60
2024-01-05T08:41:45.657Z,31.70
2024-01-05T08:44:12.702Z,31.80
2024-01-05T08:46:39.690Z,31.80
2024-01-05T08:49:07.013Z,31.90
2024-01-05T08:51:34.130Z,32.10
2024-01-05T08:54:04.575Z,32.20
2024-01-05T08:56:31.672Z,32.30
2024-01-05T08:58:58.923Z,32.40
2024-01-05T09:01:27.017Z,32.50
2024-01-05T09:03:54.268Z,32.60
2024-01-05T09:06:21.494Z,32.60
2024-01-05T09:08:48.617Z,32.70
2024-01-05T09:11:15.734Z,32.70
2024-01-05T09:13:43.102Z,32.70
2024-01-05T09:16:10.142Z,32.80
2024-01-05T09:18:38.808Z,32.90
2024-01-05T09:21:08.492Z,32.90
2024-01-05T09:23:35.704Z,32.90
2024-01-05T09:26:04.310Z,32.90
2024-01-05T09:28:31.226Z,32.80
2024-01-05T09:30:58.262Z,32.80
2024-01-05T09:33:25.746Z,32.90
2024-01-05T09:35:52.919Z,33.60
2024-01-05T09:38:21.069Z,32.90
2024-01-05T09:40:48.764Z,33.00
2024-01-05T09:43:17.994Z,33.00
2024-01-05T09:45:48.971Z,33.10
2024-01-05T09:48:16.693Z,33.30
2024-01-05T09:50:53.184Z,33.40
2024-01-05T09:53:20.724Z,33.50
2024-01-05T09:55:48.178Z,33.60
2024-01-05T09:58:16.279Z,33.70
2024-01-05T10:00:44.635Z,33.70
2024-01-05T10:03:13.196Z,33.80
2024-01-05T10:05:40.190Z,33.80
2024-01-05T10:08:07.642Z,33.80
2024-01-05T10:10:49.959Z,33.80
2024-01-05T10:13:17.367Z,33.90
2024-01-05T10:15:54.666Z,33.80
2024-01-05T10:18:25.299Z,33.80
2024-01-05T10:20:53.118Z,33.70
2024-01-05T10:23:20.105Z,33.80
2024-01-05T10:25:48.339Z,33.80
2024-01-05T10:28:24.736Z,33.90
2024-01-05T10:30:55.875Z,33.90
2024-01-05T10:33:23.134Z,33.80
2024-01-05T10:35:50.329Z,34.60
2024-01-05T10:38:17.639Z,33.90
2024-01-05T10:40:44.620Z,33.90
2024-01-05T10:43:12.649Z,33.90
2024-01-05T10:45:41.132Z,34.10
2024-01-05T10:48:12.744Z,34.10
2024-01-05T10:50:42.412Z,34.20
2024-01-05T10:53:10.045Z,34.20
2024-01-05T10:55:38.104Z,34.30
2024-01-05T10:58:10.786Z,34.20
2024-01-05T11:00:39.399Z,34.20
2024-01-05T11:03:19.181Z,34.80
2024-01-05T11:05:46.897Z,34.10
2024-01-05T11:08:19.404Z,34.10
2024-01-05T11:11:05.581Z,34.00
2024-01-05T11:13:47.492Z,34.00
2024-01-05T11:16:17.474Z,34.00
2024-01-05T11:19:03.686Z,33.90
2024-01-05T11:21:49.927Z,34.00
2024-01-05T11:24:21.263Z,33.90
2024-01-05T11:26:49.539Z,33.80
2024-01-05T11:29:39.565Z,33.60
2024-01-05T11:32:06.654Z,33.50
2024-01-05T11:34:36.089Z,33.40
2024-01-05T11:37:04.325Z,33.40
2024-01-05T11:39:48.561Z,33.50
2024-01-05T11:42:24.920Z,33.50
2024-01-05T11:44:52.775Z,33.50
2024-01-05T11:47:46.126Z,33.40
2024-01-05T11:50:32.634Z,33.50
2024-01-05T11:53:08.892Z,33.50
2024-01-05T11:55:41.287Z,33.50
2024-01-05T11:58:09.170Z,33.50
2024-01-05T12:00:36.846Z,33.40
2024-01-05T12:03:04.795Z,33.30
2024-01-05T12:05:32.669Z,33.30
2024-01-05T12:07:59.961Z,33.30
2024-01-05T12:10:30.433Z,33.40
2024-01-05T12:12:57.891Z,33.30
2024-01-05T12:15:26.308Z,33.20
2024-01-05T12:18:03.146Z,33.20
2024-01-05T12:20:30.956Z,33.10
2024-01-05T12:22:58.288Z,33.10
2024-01-05T12:25:25.456Z,33.00
2024-01-05T12:27:52.891Z,33.00
2024-01-05T12:30:20.803Z,32.90
2024-01-05T12:32:48.834Z,32.80
2024-01-05T12:35:16.625Z,32.80
2024-01-05T12:37:51.147Z,32.70
2024-01-05T12:40:21.981Z,32.70
2024-01-05T12:42:49.277Z,32.60
2024-01-05T12:45:17.138Z,32.60
2024-01-05T12:47:44.377Z,32.50
2024-01-05T12:50:23.794Z,32.60
2024-01-05T12:52:51.054Z,32.60
2024-01-05T12:55:28.142Z,32.60
2024-01-05T12:58:00.712Z,32.60
2024-01-05T13:00:28.331Z,32.70
2024-01-05T13:02:55.861Z,32.90
2024-01-05T13:05:30.449Z,32.90
2024-01-05T13:08:00.624Z,33.00
2024-01-05T13:10:28.068Z,33.00
2024-01-05T13:12:55.547Z,33.10
2024-01-05T13:15:22.700Z,33.10
2024-01-05T13:17:50.776Z,33.10
2024-01-05T13:20:25.526Z,33.20
2024-01-05T13:22:56.795Z,33.30
2024-01-05T13:25:24.673Z,33.40
2024-01-05T13:27:51.792Z,33.50
2024-01-05T13:30:21.454Z,33.50
2024-01-05T13:32:49.880Z,33.60
2024-01-05T13:35:17.040Z,33.60
2024-01-05T13:37:44.288Z,33.70
2024-01-05T13:40:11.655Z,33.80
2024-01-05T13:42:38.898Z,33.80
2024-01-05T13:45:07.504Z,33.80
2024-01-05T13:47:37.582Z,33.70
2024-01-05T13:50:04.878Z,33.70
2024-01-05T13:52:32.730Z,33.60
2024-01-05T13:54:59.756Z,33.50
2024-01-05T13:57:26.844Z,33.60
2024-01-05T13:59:54.008Z,33.50
2024-01-05T14:02:20.992Z,33.50
2024-01-05T14:04:48.712Z,33.40
2024-01-05T14:07:16.206Z,33.30
2024-01-05T14:09:43.884Z,33.40
2024-01-05T14:12:11.074Z,33.40
2024-01-05T14:14:38.228Z,33.50
2024-01-05T14:17:05.413Z,33.50
2024-01-05T14:19:32.655Z,33.60
2024-01-05T14:21:59.891Z,33.50
2024-01-05T14:24:27.048Z,33.40
2024-01-05T14:26:54.167Z,33.50
2024-01-05T14:29:21.500Z,33.50
2024-01-05T14:31:49.093Z,33.70
2024-01-05T14:34:16.334Z,33.70
2024-01-05T14:36:43.521Z,33.70
2024-01-05T14:39:11.001Z,33.60
2024-01-05T14:41:38.085Z,33.60
2024-01-05T14:44:05.114Z,33.50
2024-01-05T14:46:32.185Z,33.50
2024-01-05T14:48:59.282Z,33.50
2024-01-05T14:51:26.462Z,33.40
2024-01-05T14:53:53.478Z,33.40
2024-01-05T14:56:20.474Z,33.30
2024-01-05T14:58:49.807Z,33.30
2024-01-05T15:01:19.863Z,33.30
2024-01-05T15:03:47.938Z,33.30
2024-01-05T15:06:15.489Z,33.20
2024-01-05T15:08:42.480Z,33.20
2024-01-05T15:11:16.928Z,33.10
2024-01-05T15:13:43.950Z,33.10
2024-01-05T15:16:10.906Z,33.20
2024-01-05T15:18:37.956Z,33.20
2024-01-05T15:21:08.090Z,33.20
2024-01-05T15:23:35.516Z,33.30
2024-01-05T15:26:02.603Z,33.20
2024-01-05T15:28:29.810Z,33.30
2024-01-05T15:30:56.854Z,33.30
2024-01-05T15:33:26.714Z,33.20
2024-01-05T15:35:53.709Z,33.30
2024-01-05T15:38:21.022Z,33.30
2024-01-05T15:40:48.037Z,33.40
2024-01-05T15:43:16.170Z,33.40
2024-01-05T15:45:43.295Z,33.30
2024-01-05T15:48:12.332Z,33.40
2024-01-05T15:50:39.438Z,33.30
2024-01-05T15:53:06.368Z,33.20
2024-01-05T15:55:38.110Z,33.80
2024-01-05T15:58:08.446Z,33.00
2024-01-05T16:00:35.671Z,33.00
2024-01-05T16:03:02.792Z,32.90
2024-01-05T16:05:30.082Z,32.90
2024-01-05T16:07:59.570Z,32.80
2024-01-05T16:10:26.528Z,32.70
2024-01-05T16:12:53.747Z,32.70
2024-01-05T16:15:21.127Z,32.70
2024-01-05T16:17:48.531Z,32.70
2024-01-05T16:20:20.195Z,32.60
2024-01-05T16:22:47.163Z,32.70
2024-01-05T16:25:14.124Z,32.60
2024-01-05T16:27:41.153Z,32.70
2024-01-05T16:30:09.273Z,33.50
2024-01-05T16:32:42.169Z,32.80
2024-01-05T16:35:10.524Z,32.80
2024-01-05T16:37:39.106Z,32.80
2024-01-05T16:40:06.976Z,32.90
2024-01-05T16:42:34.072Z,32.90
2024-01-05T16:45:01.465Z,32.90
2024-01-05T16:47:28.903Z,32.90
2024-01-05T16:49:56.155Z,33.00
2024-01-05T16:52:23.638Z,33.00
2024-01-05T16:54:53.872Z,33.00
2024-01-05T16:57:23.503Z,33.00
2024-01-05T16:59:50.520Z,33.00
2024-01-05T17:02:19.374Z,33.00
2024-01-05T17:04:48.019Z,33.00
2024-01-05T17:07:17.931Z,32.90
2024-01-05T17:09:45.201Z,32.90
2024-01-05T17:12:12.410Z,32.90
2024-01-05T17:14:39.441Z,32.90
2024-01-05T17:17:06.464Z,32.90
2024-01-05T17:19:33.518Z,32.80
2024-01-05T17:22:00.645Z,32.80
2024-01-05T17:24:27.634Z,32.80
2024-01-05T17:26:54.645Z,32.80
2024-01-05T17:29:21.586Z,32.90
2024-01-05T17:31:48.521Z,32.90
2024-01-05T17:34:16.190Z,33.00
2024-01-05T17:36:43.408Z,33.10
2024-01-05T17:39:10.480Z,33.10
2024-01-05T17:41:37.429Z,33.20
2024-01-05T17:44:04.843Z,33.20
2024-01-05T17:46:31.954Z,33.20
2024-01-05T17:49:00.076Z,33.30
2024-01-05T17:51:33.702Z,33.30
2024-01-05T17:54:01.274Z,34.00
2024-01-05T17:56:33.900Z,33.30
2024-01-05T17:59:01.594Z,33.30
2024-01-05T18:01:29.184Z,33.40
2024-01-05T18:03:56.303Z,33.30
2024-01-05T18:06:23.597Z,33.40
2024-01-05T18:08:50.731Z,33.40
2024-01-05T18:11:24.625Z,33.30
2024-01-05T18:13:52.273Z,33.30
2024-01-05T18:16:29.769Z,33.30
2024-01-05T18:18:59.829Z,33.20
2024-01-05T18:21:29.309Z,33.20
2024-01-05T18:23:57.426Z,33.20
2024-01-05T18:26:25.661Z,33.20
2024-01-05T18:28:52.626Z,33.10
2024-01-05T18:31:29.427Z,33.10
2024-01-05T18:33:56.653Z,33.10
2024-01-05T18:36:23.942Z,33.00
2024-01-05T18:38:51.077Z,33.00
2024-01-05T18:41:21.096Z,32.90
2024-01-05T18:43:48.242Z,32.90
2024-01-05T18:46:16.933Z,32.90
2024-01-05T18:48:44.418Z,32.90
2024-01-05T18:51:11.665Z,32.90
2024-01-05T18:53:38.813Z,32.90
2024-01-05T18:56:06.381Z,32.90
2024-01-05T18:58:36.625Z,32.90
2024-01-05T19:01:04.139Z,32.90
2024-01-05T19:03:31.382Z,32.90
2024-01-05T19:05:58.628Z,32.80
2024-01-05T19:08:26.327Z,32.80
2024-01-05T19:10:53.632Z,32.80
2024-01-05T19:13:20.810Z,32.80
2024-01-05T19:15:48.094Z,32.80
2024-01-05T19:18:16.631Z,32.90
2024-01-05T19:20:43.852Z,33.00
2024-01-05T19:23:11.039Z,33.70
2024-01-05T19:25:38.089Z,33.00
2024-01-05T19:28:05.363Z,33.10
2024-01-05T19:30:32.472Z,33.00
2024-01-05T19:32:59.672Z,33.10
2024-01-05T19:35:26.685Z,33.10
2024-01-05T19:37:53.896Z,33.10
2024-01-05T19:40:20.880Z,33.10
2024-01-05T19:42:48.277Z,33.10
2024-01-05T19:45:15.581Z,33.00
2024-01-05T19:47:43.769Z,32.90
2024-01-05T19:50:11.382Z,32.90
2024-01-05T19:52:38.497Z,32.90
2024-01-05T19:55:08.406Z,32.80
2024-01-05T19:57:36.169Z,32.90
2024-01-05T20:00:04.303Z,32.80
2024-01-05T20:02:34.051Z,32.70
2024-01-05T20:05:01.258Z,32.70
2024-01-05T20:07:29.082Z,32.70
2024-01-05T20:09:56.083Z,32.60
2024-01-05T20:12:23.176Z,32.60
2024-01-05T20:14:50.305Z,32.60
2024-01-05T20:17:17.311Z,32.60
2024-01-05T20:19:44.484Z,32.70
2024-01-05T20:22:11.567Z,32.60
2024-01-05T20:24:39.079Z,32.70
2024-01-05T20:27:10.361Z,32.70
2024-01-05T20:29:42.276Z,32.80
2024-01-05T20:32:10.323Z,32.80
2024-01-05T20:34:37.445Z,32.80
2024-01-05T20:37:04.599Z,32.80
2024-01-05T20:39:31.816Z,32.70
2024-01-05T20:41:58.788Z,32.80
2024-01-05T20:44:26.022Z,32.80
2024-01-05T20:46:53.261Z,32.90
2024-01-05T20:49:20.621Z,32.90
2024-01-05T20:51:48.156Z,33.00
2024-01-05T20:54:17.358Z,33.00
2024-01-05T20:56:44.575Z,33.00
2024-01-05T20:59:11.655Z,33.10
2024-01-05T21:01:45.372Z,33.10
2024-01-05T21:04:15.619Z,33.10
2024-01-05T21:06:44.278Z,33.30
2024-01-05T21:09:11.393Z,33.40
2024-01-05T21:11:38.625Z,34.30
2024-01-05T21:14:05.691Z,33.60
2024-01-05T21:16:32.713Z,33.70
2024-01-05T21:19:00.888Z,33.90
2024-01-05T21:21:29.601Z,34.00
2024-01-05T21:23:57.153Z,34.10
2024-01-05T21:26:24.286Z,34.10
2024-01-05T21:28:51.326Z,34.20
2024-01-05T21:31:18.386Z,34.30
2024-01-05T21:33:45.884Z,34.40
2024-01-05T21:36:13.909Z,34.40
2024-01-05T21:38:40.950Z,34.50
2024-01-05T21:41:07.937Z,34.60
2024-01-05T21:43:34.925Z,34.60
2024-01-05T21:46:02.246Z,34.70
2024-01-05T21:48:29.561Z,34.70
2024-01-05T21:50:56.617Z,34.70
2024-01-05T21:53:23.633Z,34.70
2024-01-05T21:55:51.544Z,34.80
2024-01-05T21:58:18.566Z,34.80
2024-01-05T22:00:45.699Z,34.80
2024-01-05T22:03:13.494Z,34.90
2024-01-05T22:05:40.522Z,34.90
2024-01-05T22:08:09.165Z,34.90
2024-01-05T22:10:38.049Z,34.90
2024-01-05T22:13:05.126Z,34.90
2024-01-05T22:15:32.443Z,35.00
2024-01-05T22:17:59.569Z,35.00
2024-01-05T22:20:26.502Z,35.00
2024-01-05T22:22:53.676Z,34.90
2024-01-05T22:25:20.833Z,35.00
2024-01-05T22:27:47.856Z,35.00
2024-01-05T22:30:14.873Z,35.00
2024-01-05T22:32:42.055Z,35.00
2024-01-05T22:35:11.130Z,35.00
2024-01-05T22:37:38.285Z,35.00
2024-01-05T22:40:07.264Z,35.10
2024-01-05T22:42:34.253Z,35.10
2024-01-05T22:45:01.321Z,35.10
2024-01-05T22:47:28.451Z,35.10
2024-01-05T22:49:55.543Z,35.20
2024-01-05T22:52:22.733Z,35.20
2024-01-05T22:54:50.005Z,35.20
2024-01-05T22:57:18.610Z,35.30
2024-01-05T22:59:45.570Z,35.30
2024-01-05T23:02:12.489Z,35.30
2024-01-05T23:04:41.044Z,35.40
2024-01-05T23:07:08.237Z,35.40
2024-01-05T23:09:36.329Z,35.40
2024-01-05T23:12:03.403Z,35.40
2024-01-05T23:14:31.339Z,35.40
2024-01-05T23:16:58.287Z,35.40
2024-01-05T23:19:25.382Z,35.40
2024-01-05T23:21:52.639Z,35.40
2024-01-05T23:24:19.669Z,35.40
2024-01-05T23:26:46.678Z,35.40
2024-01-05T23:29:13.630Z,35.40
2024-01-05T23:31:41.665Z,35.40
2024-01-05T23:34:16.046Z,35.40
2024-01-05T23:36:45.049Z,35.40
2024-01-05T23:39:12.296Z,35.40
2024-01-05T23:41:39.318Z,35.50
2024-01-05T23:44:06.383Z,35.50
2024-01-05T23:46:33.313Z,35.60
2024-01-05T23:49:00.695Z,35.50
2024-01-05T23:51:27.817Z,35.60
2024-01-05T23:53:54.788Z,35.60
2024-01-05T23:56:22.640Z,35.50
2024-01-05T23:58:49.583Z,35.50
